Time;durP1;ratioP1;P1;durP2;ratioP2;P2;SDS_P1;SDS_P2;PMS_P1;PMS_P2;Temp;Humidity;BMP_temperature;BMP_pressure;BME280_temperature;BME280_humidity;BME280_pressure;Samples;Min_cycle;Max_cycle;Signal;HPM_P1;HPM_P2
2022/07/10 00:01:18;;;;;;;16.98;4.75;;;;;;;10.87;84.95;102661.66;5053343;28;20027;-43
2022/07/10 00:03:44;;;;;;;15.40;4.88;;;;;;;10.73;85.28;102659.06;5052478;28;20215;-45
2022/07/10 00:06:09;;;;;;;10.43;4.53;;;;;;;10.60;85.81;102662.59;5052946;28;20468;-42
2022/07/10 00:08:35;;;;;;;11.07;4.57;;;;;;;10.48;86.56;102666.25;5053213;28;20029;-40
2022/07/10 00:11:00;;;;;;;15.10;5.03;;;;;;;10.37;86.89;102654.41;5052627;28;20460;-42
2022/07/10 00:13:25;;;;;;;10.02;5.05;;;;;;;10.38;87.39;102654.50;5053174;28;20021;-42
2022/07/10 00:15:51;;;;;;;14.23;4.68;;;;;;;10.36;87.56;102656.09;5052980;28;20100;-42
2022/07/10 00:18:16;;;;;;;14.40;5.10;;;;;;;10.42;88.32;102658.16;5052449;28;20025;-42
2022/07/10 00:20:41;;;;;;;14.95;5.03;;;;;;;10.51;88.42;102652.66;5053254;28;20033;-43
2022/07/10 00:23:07;;;;;;;12.80;4.90;;;;;;;10.53;88.49;102648.47;5052859;28;20383;-41
2022/07/10 00:25:33;;;;;;;20.42;6.10;;;;;;;10.62;88.41;102655.88;5052360;28;20032;-43
2022/07/10 00:27:58;;;;;;;13.75;5.05;;;;;;;10.66;88.04;102655.22;5052887;28;20041;-43
2022/07/10 00:30:23;;;;;;;16.67;5.13;;;;;;;10.67;88.30;102646.69;5052044;28;20447;-44
2022/07/10 00:32:49;;;;;;;12.57;5.43;;;;;;;10.64;88.26;102654.25;5052759;28;20453;-41
2022/07/10 00:35:14;;;;;;;19.85;5.55;;;;;;;10.77;88.11;102649.00;5052858;28;20029;-42
2022/07/10 00:37:39;;;;;;;16.58;5.75;;;;;;;10.76;87.87;102644.66;5052246;28;20080;-42
2022/07/10 00:40:05;;;;;;;18.02;6.00;;;;;;;10.75;88.11;102652.31;5052827;28;20029;-44
2022/07/10 00:42:31;;;;;;;22.30;6.88;;;;;;;10.79;88.39;102647.41;5052905;28;20025;-42
2022/07/10 00:44:56;;;;;;;12.57;5.30;;;;;;;10.76;87.75;102639.50;5051936;28;20079;-42
2022/07/10 00:47:21;;;;;;;17.60;5.53;;;;;;;10.79;87.80;102642.22;5052910;28;20033;-41
2022/07/10 00:49:50;;;;;;;15.18;6.03;;;;;;;10.81;88.00;102635.50;5052731;28;20116;-45
2022/07/10 00:52:17;;;;;;;18.08;6.03;;;;;;;10.88;88.11;102647.03;5051814;28;20028;-42
2022/07/10 00:54:44;;;;;;;14.70;5.90;;;;;;;10.93;87.66;102635.28;5052709;28;20472;-41
2022/07/10 00:57:10;;;;;;;;;;;;;;;11.00;85.37;102646.84;5053033;28;20476;-43
2022/07/10 00:59:36;;;;;;;17.13;6.05;;;;;;;11.00;87.52;102636.53;5051644;28;19999;-45
2022/07/10 01:02:03;;;;;;;12.23;5.30;;;;;;;11.09;87.38;102634.50;5052371;28;20068;-41
2022/07/10 01:04:29;;;;;;;13.95;5.10;;;;;;;11.16;87.11;102626.28;5053132;28;20078;-41
2022/07/10 01:06:54;;;;;;;14.23;5.80;;;;;;;11.13;87.05;102618.38;5051888;28;20477;-41
2022/07/10 01:09:20;;;;;;;12.88;5.70;;;;;;;11.07;87.20;102623.19;5052499;28;20040;-41
2022/07/10 01:11:46;;;;;;;17.27;6.22;;;;;;;11.15;87.37;102616.75;5052571;28;20541;-40
2022/07/10 01:14:12;;;;;;;20.13;6.43;;;;;;;11.05;87.23;102614.44;5051542;28;20026;-42
2022/07/10 01:16:37;;;;;;;14.85;5.90;;;;;;;10.97;87.43;102608.84;5052680;28;20094;-41
2022/07/10 01:19:02;;;;;;;15.98;5.88;;;;;;;10.95;87.52;102602.75;5055148;28;20068;-42
2022/07/10 01:21:33;;;;;;;16.02;6.20;;;;;;;10.91;87.63;102599.91;5055833;28;20100;-42
2022/07/10 01:24:03;;;;;;;16.10;6.30;;;;;;;10.88;87.88;102605.75;5056254;28;20170;-41
2022/07/10 01:26:28;;;;;;;15.32;6.20;;;;;;;10.87;88.03;102603.97;5056447;28;20112;-43
2022/07/10 01:28:54;;;;;;;23.77;6.65;;;;;;;10.84;88.21;102604.69;5055974;28;20162;-42
2022/07/10 01:31:24;;;;;;;20.65;6.88;;;;;;;10.75;88.39;102605.88;5056423;28;20021;-42
2022/07/10 01:33:50;;;;;;;14.77;6.57;;;;;;;10.72;88.96;102604.03;5055576;28;20032;-41
2022/07/10 01:36:16;;;;;;;19.90;6.65;;;;;;;10.69;89.20;102614.13;5056097;28;20029;-43
2022/07/10 01:38:41;;;;;;;17.63;6.32;;;;;;;10.62;89.34;102614.59;5056069;28;20025;-40
2022/07/10 01:41:08;;;;;;;15.93;6.00;;;;;;;10.49;89.07;102610.44;5055158;28;20032;-41
2022/07/10 01:43:35;;;;;;;18.75;6.47;;;;;;;10.38;89.40;102612.38;5056360;28;20060;-42
2022/07/10 01:46:00;;;;;;;15.73;6.80;;;;;;;10.26;89.72;102619.34;5056432;28;20025;-43
2022/07/10 01:48:25;;;;;;;17.20;6.75;;;;;;;10.27;90.08;102609.13;5055250;28;20021;-42
2022/07/10 01:50:50;;;;;;;15.57;6.40;;;;;;;10.08;90.03;102609.72;5055923;28;20492;-43
2022/07/10 01:53:16;;;;;;;13.80;6.90;;;;;;;10.02;90.15;102601.63;5055799;28;20021;-40
2022/07/10 01:55:41;;;;;;;16.45;6.63;;;;;;;9.92;90.18;102604.47;5054756;28;20021;-41
2022/07/10 01:58:06;;;;;;;14.30;7.03;;;;;;;9.85;90.34;102609.22;5055826;28;20188;-42
2022/07/10 02:00:32;;;;;;;14.82;6.97;;;;;;;9.82;90.63;102606.44;5056068;28;20017;-44
2022/07/10 02:05:44;;;;;;;18.60;7.38;;;;;;;9.79;91.92;102593.41;5055731;28;20028;-44
2022/07/10 02:08:09;;;;;;;18.42;7.07;;;;;;;9.79;91.57;102595.97;5055585;28;20029;-43
2022/07/10 02:10:34;;;;;;;16.27;6.80;;;;;;;9.85;92.48;102604.06;5054965;28;20104;-41
2022/07/10 02:13:00;;;;;;;15.90;7.38;;;;;;;9.93;93.54;102601.97;5055755;28;20032;-42
2022/07/10 02:15:25;;;;;;;19.17;8.00;;;;;;;9.95;94.01;102604.63;5055575;28;20033;-42
2022/07/10 02:17:50;;;;;;;18.05;6.88;;;;;;;10.03;94.04;102596.56;5054561;28;20028;-41
2022/07/10 02:20:16;;;;;;;24.48;7.85;;;;;;;10.02;94.38;102599.94;5055165;28;20027;-41
2022/07/10 02:22:42;;;;;;;13.80;6.75;;;;;;;9.99;93.48;102601.44;5055261;28;20025;-41
2022/07/10 02:25:08;;;;;;;17.10;7.50;;;;;;;9.95;93.88;102605.50;5054861;28;20027;-45
2022/07/10 02:27:33;;;;;;;21.80;6.80;;;;;;;9.98;94.09;102604.81;5055390;28;20033;-43
2022/07/10 02:29:58;;;;;;;18.40;8.00;;;;;;;9.98;94.10;102604.81;5053680;28;20025;-42
2022/07/10 02:32:24;;;;;;;15.20;7.35;;;;;;;9.93;93.67;102601.97;5055255;28;20029;-40
2022/07/10 02:34:49;;;;;;;19.90;8.80;;;;;;;9.97;94.19;102603.94;5055149;28;20071;-41
2022/07/10 02:37:14;;;;;;;18.48;7.10;;;;;;;9.84;93.76;102606.56;5054103;28;20028;-42
2022/07/10 02:39:40;;;;;;;17.92;6.97;;;;;;;9.91;93.88;102597.53;5054997;28;20024;-41
2022/07/10 02:42:05;;;;;;;16.08;7.80;;;;;;;9.85;94.59;102593.78;5054725;28;20041;-42
2022/07/10 02:44:31;;;;;;;19.88;7.75;;;;;;;9.95;95.04;102594.31;5054273;28;20500;-42
2022/07/10 02:46:56;;;;;;;16.70;7.18;;;;;;;9.88;95.18;102593.94;5054821;28;20479;-43
2022/07/10 02:49:21;;;;;;;18.58;7.43;;;;;;;9.91;94.47;102587.22;5054618;28;20029;-41
2022/07/10 02:51:47;;;;;;;15.82;7.85;;;;;;;10.01;94.82;102586.97;5054039;28;20492;-40
2022/07/10 02:54:12;;;;;;;21.23;8.02;;;;;;;10.14;94.83;102583.44;5054521;28;20036;-41
2022/07/10 02:56:37;;;;;;;17.20;7.63;;;;;;;10.27;94.64;102582.47;5054597;28;20041;-44
2022/07/10 02:59:03;;;;;;;17.42;7.47;;;;;;;10.41;94.77;102584.19;5053899;28;20040;-43
2022/07/10 03:01:28;;;;;;;19.45;7.93;;;;;;;10.52;94.43;102583.13;5054905;28;20017;-42
2022/07/10 03:03:53;;;;;;;17.40;7.57;;;;;;;10.64;93.93;102575.22;5054739;28;20025;-41
2022/07/10 03:06:18;;;;;;;24.55;7.20;;;;;;;10.73;93.53;102571.38;5053918;28;20024;-42
2022/07/10 03:08:44;;;;;;;20.00;7.82;;;;;;;10.70;93.13;102569.50;5054526;28;20074;-42
2022/07/10 03:11:09;;;;;;;17.90;7.18;;;;;;;10.67;92.98;102577.06;5054524;28;20103;-42
2022/07/10 03:13:34;;;;;;;18.35;7.32;;;;;;;10.71;92.75;102573.88;5054015;28;20392;-45
2022/07/10 03:16:00;;;;;;;19.40;7.38;;;;;;;10.66;92.75;102578.75;5054350;28;20053;-45
2022/07/10 03:18:25;;;;;;;24.33;7.78;;;;;;;10.74;92.85;102570.56;5054087;28;20033;-42
2022/07/10 03:20:50;;;;;;;21.20;7.63;;;;;;;10.73;93.00;102580.00;5053524;28;20028;-42
2022/07/10 03:23:16;;;;;;;19.02;7.38;;;;;;;10.64;92.96;102582.03;5054015;28;20467;-42
2022/07/10 03:25:41;;;;;;;21.50;8.35;;;;;;;10.55;92.79;102585.00;5054281;28;20028;-43
2022/07/10 03:28:06;;;;;;;20.35;7.97;;;;;;;10.56;93.37;102585.88;5053340;28;20025;-41
2022/07/10 03:30:31;;;;;;;17.08;7.70;;;;;;;10.52;93.60;102582.22;5054203;28;20531;-45
2022/07/10 03:32:57;;;;;;;25.27;8.23;;;;;;;10.55;93.65;102574.69;5053774;28;20021;-42
2022/07/10 03:35:22;;;;;;;21.60;8.27;;;;;;;10.63;94.01;102567.41;5053118;28;20029;-43
2022/07/10 03:37:47;;;;;;;22.88;8.07;;;;;;;10.61;93.56;102563.84;5053832;28;20051;-42
2022/07/10 03:40:13;;;;;;;21.20;7.72;;;;;;;10.58;93.90;102566.25;5052689;28;20029;-40
2022/07/10 03:42:38;;;;;;;19.50;7.65;;;;;;;10.58;94.01;102568.81;5053575;28;20024;-41
2022/07/10 03:45:04;;;;;;;19.38;7.35;;;;;;;10.67;93.80;102566.75;5053645;28;20158;-41
2022/07/10 03:47:29;;;;;;;17.67;7.45;;;;;;;10.66;93.80;102564.97;5053027;28;20029;-41
2022/07/10 03:49:55;;;;;;;20.02;8.50;;;;;;;10.67;93.35;102572.78;5053647;28;20033;-44
2022/07/10 03:52:20;;;;;;;23.70;7.82;;;;;;;10.57;93.64;102561.88;5053555;28;20029;-41
2022/07/10 03:54:45;;;;;;;23.65;9.18;;;;;;;10.69;94.14;102567.72;5052621;28;20024;-41
2022/07/10 03:59:55;;;;;;;24.58;8.45;;;;;;;10.72;94.23;102560.19;5053763;28;20040;-42
2022/07/10 04:02:20;;;;;;;26.35;8.40;;;;;;;10.71;93.76;102567.00;5052587;28;20029;-43
2022/07/10 04:04:45;;;;;;;17.80;6.97;;;;;;;10.73;93.95;102568.78;5053260;28;20095;-44
2022/07/10 04:07:12;;;;;;;19.75;8.60;;;;;;;10.79;94.09;102570.03;5053010;28;20032;-41
2022/07/10 04:09:37;;;;;;;20.52;8.45;;;;;;;10.95;93.85;102557.97;5052679;28;20032;-44
2022/07/10 04:12:03;;;;;;;17.50;7.90;;;;;;;11.06;93.54;102561.19;5053016;28;20017;-42
2022/07/10 04:14:28;;;;;;;24.35;7.68;;;;;;;11.06;93.92;102569.78;5053309;28;20127;-41
2022/07/10 04:16:53;;;;;;;20.33;7.68;;;;;;;11.17;93.30;102568.69;5052338;28;20029;-42
2022/07/10 04:19:19;;;;;;;19.27;7.68;;;;;;;11.23;92.91;102567.25;5052977;28;20017;-42
2022/07/10 04:21:44;;;;;;;19.65;7.43;;;;;;;11.34;92.22;102543.78;5052899;28;20021;-41
2022/07/10 04:24:09;;;;;;;20.73;8.25;;;;;;;11.42;91.88;102548.50;5052401;28;20017;-43
2022/07/10 04:26:35;;;;;;;17.33;6.70;;;;;;;11.42;91.31;102549.38;5052971;28;20041;-41
2022/07/10 04:29:00;;;;;;;13.07;6.95;;;;;;;11.46;91.60;102556.47;5053125;28;20021;-42
2022/07/10 04:31:25;;;;;;;17.05;6.47;;;;;;;11.53;91.00;102565.44;5052061;28;20464;-41
2022/07/10 04:33:51;;;;;;;23.27;6.60;;;;;;;11.64;90.98;102555.69;5052826;28;20087;-43
2022/07/10 04:36:16;;;;;;;19.00;6.93;;;;;;;11.68;90.28;102558.53;5052549;28;20051;-42
2022/07/10 04:38:41;;;;;;;16.05;6.13;;;;;;;11.71;90.56;102565.53;5052164;28;20379;-43
2022/07/10 04:41:06;;;;;;;18.52;7.22;;;;;;;11.81;89.92;102559.13;5052615;28;20032;-41
2022/07/10 04:43:32;;;;;;;18.55;7.03;;;;;;;11.95;89.66;102552.09;5052106;28;20029;-41
2022/07/10 04:45:57;;;;;;;15.40;6.53;;;;;;;11.98;89.81;102562.63;5052777;28;20028;-41
2022/07/10 04:48:22;;;;;;;22.80;7.20;;;;;;;12.07;89.93;102567.38;5052727;28;20025;-42
2022/07/10 04:50:48;;;;;;;16.33;6.43;;;;;;;12.07;89.67;102563.13;5051633;28;20351;-43
2022/07/10 04:53:13;;;;;;;16.52;6.68;;;;;;;12.17;89.73;102564.44;5052330;28;20032;-42
2022/07/10 04:55:39;;;;;;;16.00;5.85;;;;;;;12.17;89.17;102565.38;5052458;28;20021;-43
2022/07/10 04:58:04;;;;;;;15.68;6.35;;;;;;;12.23;89.35;102569.94;5051782;28;20409;-44
2022/07/10 05:00:29;;;;;;;15.82;5.20;;;;;;;12.31;88.85;102562.56;5052549;28;20044;-44
2022/07/10 05:02:54;;;;;;;21.10;6.38;;;;;;;12.37;88.18;102544.78;5052583;28;20090;-42
2022/07/10 05:05:20;;;;;;;13.68;5.60;;;;;;;12.41;88.07;102557.03;5051597;28;20024;-41
2022/07/10 05:07:45;;;;;;;11.75;5.50;;;;;;;12.49;89.44;102576.41;5052599;28;20075;-45
2022/07/10 05:10:10;;;;;;;16.20;5.80;;;;;;;12.56;88.48;102574.13;5052487;28;20036;-43
2022/07/10 05:12:35;;;;;;;19.70;5.70;;;;;;;12.61;87.57;102573.53;5051822;28;20036;-41
2022/07/10 05:15:01;;;;;;;12.38;5.03;;;;;;;12.68;88.39;102579.91;5052646;28;20029;-45
2022/07/10 05:17:28;;;;;;;16.23;5.50;;;;;;;12.71;88.23;102580.06;5052546;28;20110;-42
2022/07/10 05:19:55;;;;;;;14.70;5.18;;;;;;;12.71;88.84;102579.19;5051576;28;20045;-41
2022/07/10 05:22:21;;;;;;;12.35;5.10;;;;;;;12.64;88.02;102575.38;5052574;28;20021;-41
2022/07/10 05:24:46;;;;;;;21.08;5.30;;;;;;;12.52;87.67;102576.56;5052529;28;20111;-42
2022/07/10 05:27:11;;;;;;;18.10;4.85;;;;;;;12.43;87.61;102568.34;5051588;28;20025;-44
2022/07/10 05:29:37;;;;;;;17.13;5.03;;;;;;;12.40;89.00;102568.19;5052347;28;20415;-43
2022/07/10 05:32:02;;;;;;;17.55;5.03;;;;;;;12.39;89.46;102570.72;5052179;28;20021;-41
2022/07/10 05:34:28;;;;;;;20.02;5.70;;;;;;;12.40;90.54;102568.19;5051552;28;20017;-42
2022/07/10 05:36:53;;;;;;;23.67;6.28;;;;;;;12.45;90.07;102577.06;5052141;28;20033;-44
2022/07/10 05:39:21;;;;;;;14.32;5.38;;;;;;;12.50;91.31;102573.00;5052039;28;20029;-44
2022/07/10 05:41:47;;;;;;;20.38;5.45;;;;;;;12.58;90.61;102570.81;5051508;28;20021;-41
2022/07/10 05:44:12;;;;;;;15.25;5.10;;;;;;;12.68;90.83;102579.91;5052090;28;20029;-44
2022/07/10 05:46:38;;;;;;;18.15;4.53;;;;;;;12.76;89.99;102565.63;5052160;28;20100;-45
2022/07/10 05:49:03;;;;;;;17.80;4.93;;;;;;;12.85;90.44;102572.97;5051119;28;20460;-42
2022/07/10 05:51:28;;;;;;;19.25;4.75;;;;;;;12.96;89.70;102576.03;5052108;28;20032;-43
2022/07/10 05:53:53;;;;;;;16.88;4.72;;;;;;;13.07;89.71;102572.28;5051557;28;20579;-44
2022/07/10 05:56:19;;;;;;;16.33;4.72;;;;;;;13.15;90.04;102568.31;5051945;28;20049;-41
2022/07/10 05:58:44;;;;;;;16.40;4.93;;;;;;;13.28;89.80;102577.56;5052064;28;20426;-41
2022/07/10 06:01:09;;;;;;;14.27;4.75;;;;;;;13.35;87.54;102560.63;5051227;28;20029;-43
2022/07/10 06:03:35;;;;;;;22.85;4.88;;;;;;;13.45;87.95;102567.13;5052121;28;20029;-43
2022/07/10 06:06:00;;;;;;;16.30;4.65;;;;;;;13.55;86.85;102568.44;5055891;28;20029;-42
2022/07/10 06:08:26;;;;;;;14.10;4.20;;;;;;;13.65;86.08;102563.72;5055020;28;20040;-41
2022/07/10 06:10:51;;;;;;;20.88;4.55;;;;;;;13.75;87.21;102567.63;5055410;28;20025;-43
2022/07/10 06:13:16;;;;;;;16.40;4.53;;;;;;;13.90;87.90;102562.19;5055231;28;20464;-41
2022/07/10 06:15:42;;;;;;;19.95;4.07;;;;;;;13.98;85.01;102559.94;5054529;28;20051;-42
2022/07/10 06:18:07;;;;;;;27.20;5.53;;;;;;;14.02;84.96;102564.47;5055178;28;20032;-43
2022/07/10 06:20:33;;;;;;;13.73;4.15;;;;;;;14.06;83.59;102574.13;5055394;28;20017;-43
2022/07/10 06:22:58;;;;;;;19.25;4.43;;;;;;;14.16;84.11;102562.44;5054569;28;20021;-42
2022/07/10 06:25:23;;;;;;;13.55;4.22;;;;;;;14.21;82.85;102570.41;5055209;28;20025;-44
2022/07/10 06:27:49;;;;;;;19.48;3.90;;;;;;;14.30;82.24;102557.84;5055283;28;20060;-43
2022/07/10 06:30:15;;;;;;;24.15;3.83;;;;;;;14.43;81.38;102560.09;5054141;28;20024;-45
2022/07/10 06:32:44;;;;;;;20.52;4.47;;;;;;;14.56;79.85;102558.03;5055099;28;20025;-41
2022/07/10 06:35:09;;;;;;;15.93;3.75;;;;;;;14.59;78.61;102560.72;5054901;28;20538;-45
2022/07/10 06:37:35;;;;;;;16.98;3.60;;;;;;;14.64;80.79;102556.63;5054399;28;20163;-45
2022/07/10 06:40:00;;;;;;;20.15;3.67;;;;;;;14.78;81.70;102552.91;5055172;28;20021;-43
2022/07/10 06:42:26;;;;;;;17.80;3.92;;;;;;;14.85;79.02;102553.13;5054927;28;20036;-41
2022/07/10 06:44:51;;;;;;;21.55;3.60;;;;;;;14.92;78.74;102556.03;5054299;28;20025;-45
2022/07/10 06:50:07;;;;;;;15.35;3.70;;;;;;;15.50;77.89;102564.25;5054672;28;20040;-41
2022/07/10 06:52:33;;;;;;;19.38;3.75;;;;;;;15.62;78.78;102561.22;5054908;28;20126;-43
2022/07/10 06:55:00;;;;;;;16.80;3.85;;;;;;;15.55;76.10;102567.91;5053960;28;20021;-44
2022/07/10 06:57:26;;;;;;;20.07;4.13;;;;;;;15.59;76.91;102561.13;5052143;28;20037;-41
2022/07/10 06:59:52;;;;;;;18.83;3.47;;;;;;;15.69;75.00;102552.81;5054201;28;20017;-45
2022/07/10 07:02:18;;;;;;;15.20;3.35;;;;;;;15.95;75.58;102555.50;5054588;28;20100;-44
2022/07/10 07:04:44;;;;;;;17.52;3.70;;;;;;;16.30;76.39;102555.81;5053721;28;20032;-43
2022/07/10 07:07:10;;;;;;;19.05;3.72;;;;;;;16.49;73.08;102559.00;5054323;28;20029;-42
2022/07/10 07:09:35;;;;;;;17.98;3.85;;;;;;;16.66;72.50;102564.78;5054653;28;20108;-42
2022/07/10 07:12:00;;;;;;;14.52;3.25;;;;;;;16.83;71.50;102558.38;5053866;28;20017;-45
2022/07/10 07:14:25;;;;;;;22.08;3.08;;;;;;;16.86;71.11;102558.47;5054275;28;20024;-43
2022/07/10 07:16:58;;;;;;;19.13;3.50;;;;;;;16.85;71.00;102564.50;5054230;28;20383;-45
2022/07/10 07:19:31;;;;;;;15.85;3.47;;;;;;;16.88;71.84;102568.94;5053231;28;20029;-46
2022/07/10 07:24:43;;;;;;;17.58;3.65;;;;;;;16.97;71.34;102574.44;5054567;28;20060;-41
2022/07/10 07:27:13;;;;;;;23.92;4.10;;;;;;;16.98;70.96;102568.41;5053134;28;20025;-43
2022/07/10 07:29:38;;;;;;;18.38;3.15;;;;;;;16.95;69.73;102569.22;5054221;28;20024;-44
2022/07/10 07:32:04;;;;;;;16.98;3.72;;;;;;;16.98;69.71;102573.63;5054097;28;20032;-45
2022/07/10 07:34:30;;;;;;;16.88;3.50;;;;;;;17.03;70.16;102574.66;5053403;28;20448;-42
2022/07/10 07:36:56;;;;;;;17.67;4.30;;;;;;;17.15;69.69;102575.88;5053627;28;20256;-44
2022/07/10 07:39:21;;;;;;;17.17;4.32;;;;;;;17.14;68.93;102571.50;5052938;28;20056;-43
2022/07/10 07:41:47;;;;;;;14.93;3.80;;;;;;;17.30;67.85;102573.72;5053784;28;20048;-45
2022/07/10 07:44:13;;;;;;;19.27;3.65;;;;;;;17.41;67.80;102567.06;5053874;28;20032;-41
2022/07/10 07:46:38;;;;;;;15.43;4.32;;;;;;;17.56;67.46;102570.97;5053115;28;20025;-47
2022/07/10 07:49:03;;;;;;;19.50;5.32;;;;;;;17.74;68.26;102575.78;5053524;28;20391;-42
2022/07/10 07:51:29;;;;;;;19.58;5.60;;;;;;;17.72;67.25;102574.88;5053631;28;20029;-42
2022/07/10 07:53:54;;;;;;;18.50;5.95;;;;;;;17.68;67.84;102567.81;5052769;28;20061;-42
2022/07/10 07:56:19;;;;;;;21.20;5.38;;;;;;;17.54;68.55;102567.44;5053043;28;20068;-44
2022/07/10 07:58:45;;;;;;;16.70;4.75;;;;;;;17.57;68.65;102572.72;5053754;28;20017;-46
2022/07/10 08:01:10;;;;;;;18.33;4.93;;;;;;;17.38;66.13;102572.19;5052583;28;20474;-46
2022/07/10 08:03:35;;;;;;;17.15;4.75;;;;;;;17.21;67.13;102573.41;5053492;28;20044;-43
2022/07/10 08:06:01;;;;;;;19.92;5.47;;;;;;;17.14;68.71;102580.19;5053436;28;20111;-43
2022/07/10 08:08:26;;;;;;;16.98;4.43;;;;;;;16.91;67.59;102579.47;5052526;28;20068;-43
2022/07/10 08:10:51;;;;;;;17.23;4.82;;;;;;;16.76;67.42;102567.72;5053173;28;20094;-42
2022/07/10 08:13:17;;;;;;;23.45;4.95;;;;;;;16.77;69.06;102581.59;5053350;28;20108;-42
2022/07/10 08:15:42;;;;;;;14.63;3.88;;;;;;;16.74;69.85;102569.38;5052499;28;20023;-47
2022/07/10 08:18:07;;;;;;;17.23;3.90;;;;;;;16.79;70.29;102567.78;5052944;28;20029;-43
2022/07/10 08:20:33;;;;;;;13.63;3.75;;;;;;;16.85;69.47;102574.03;5053377;28;20464;-44
2022/07/10 08:22:59;;;;;;;12.32;3.60;;;;;;;16.86;69.78;102570.59;5052284;28;20025;-43
2022/07/10 08:25:25;;;;;;;13.20;4.30;;;;;;;16.89;71.32;102571.59;5053051;28;20428;-44
2022/07/10 08:27:50;;;;;;;19.88;5.03;;;;;;;16.90;68.85;102567.25;5052652;28;20029;-46
2022/07/10 08:30:16;;;;;;;19.15;5.07;;;;;;;17.00;70.15;102571.94;5052085;28;20043;-45
2022/07/10 08:32:42;;;;;;;20.80;5.97;;;;;;;17.19;68.78;102573.38;5053007;28;20460;-44
2022/07/10 08:35:09;;;;;;;18.83;6.07;;;;;;;17.31;68.67;102570.25;5052849;28;20036;-43
2022/07/10 08:37:42;;;;;;;14.43;5.28;;;;;;;17.42;68.72;102573.19;5052056;28;20068;-43
2022/07/10 08:40:12;;;;;;;14.70;5.75;;;;;;;17.39;68.14;102573.97;5052657;28;20025;-43
2022/07/10 08:42:38;;;;;;;14.07;4.68;;;;;;;17.48;67.88;102567.25;5052037;28;20490;-43
2022/07/10 08:45:04;;;;;;;17.55;5.68;;;;;;;17.46;68.01;102563.75;5052843;28;20120;-45
2022/07/10 08:47:31;;;;;;;14.98;4.80;;;;;;;17.44;68.38;102561.97;5052798;28;20035;-43
2022/07/10 08:49:57;;;;;;;19.65;5.50;;;;;;;17.32;69.22;102568.53;5051864;28;20143;-42
2022/07/10 08:52:42;;;;;;;18.77;5.00;;;;;;;17.30;68.50;102578.94;5052415;28;20448;-42
2022/07/10 08:55:07;;;;;;;17.83;5.13;;;;;;;17.30;68.96;102571.13;5052598;28;20032;-45
2022/07/10 08:57:34;;;;;;;15.77;4.68;;;;;;;17.42;69.12;102581.00;5051552;28;20045;-42
2022/07/10 08:59:59;;;;;;;20.52;5.20;;;;;;;17.52;68.99;102574.31;5052656;28;20029;-42
2022/07/10 09:02:25;;;;;;;16.52;4.25;;;;;;;17.52;68.06;102579.53;5052590;28;20029;-43
2022/07/10 09:04:50;;;;;;;15.07;3.85;;;;;;;17.42;67.79;102581.88;5051590;28;20495;-44
2022/07/10 09:07:17;;;;;;;15.07;4.38;;;;;;;17.35;68.31;102577.34;5052664;28;20025;-42
2022/07/10 09:09:55;;;;;;;13.23;4.32;;;;;;;17.37;68.66;102582.59;5052599;28;20103;-46
2022/07/10 09:12:24;;;;;;;18.35;5.32;;;;;;;17.35;68.10;102571.22;5051428;28;20372;-46
2022/07/10 09:14:50;;;;;;;12.15;4.20;;;;;;;17.47;68.56;102568.09;5052386;28;20025;-43
2022/07/10 09:17:17;;;;;;;13.63;4.82;;;;;;;17.76;68.95;102566.28;5052309;28;20072;-47
2022/07/10 09:19:42;;;;;;;13.75;4.43;;;;;;;17.99;67.94;102563.47;5051533;28;20040;-44
2022/07/10 09:22:09;;;;;;;14.15;4.18;;;;;;;18.10;66.10;102555.06;5052531;28;20025;-46
2022/07/10 09:24:40;;;;;;;13.15;4.10;;;;;;;18.02;66.25;102561.81;5052764;28;20025;-44
2022/07/10 09:27:06;;;;;;;17.50;4.82;;;;;;;17.82;66.39;102556.03;5051575;28;20033;-42
2022/07/10 09:29:43;;;;;;;17.30;4.07;;;;;;;17.54;67.24;102559.59;5052489;28;20036;-43
2022/07/10 09:32:09;;;;;;;17.25;4.70;;;;;;;17.42;67.82;102553.19;5051441;28;20035;-44
2022/07/10 09:34:41;;;;;;;13.10;3.63;;;;;;;17.33;67.73;102557.28;5052361;28;20088;-42
2022/07/10 09:37:19;;;;;;;11.40;3.92;;;;;;;17.38;67.60;102560.91;5052306;28;20056;-44
2022/07/10 09:39:51;;;;;;;17.02;4.00;;;;;;;17.66;67.72;102554.72;5053512;28;20051;-44
2022/07/10 09:42:33;;;;;;;10.88;3.92;;;;;;;18.14;67.13;102543.00;5055948;28;20029;-43
2022/07/10 09:45:11;;;;;;;10.85;3.53;;;;;;;19.00;66.25;102536.31;5056208;28;20025;-43
2022/07/10 09:47:37;;;;;;;11.43;4.10;;;;;;;19.83;62.75;102531.88;5055201;28;20064;-44
2022/07/10 09:50:03;;;;;;;12.82;3.95;;;;;;;20.15;61.05;102538.53;5055769;28;20392;-44
2022/07/10 09:52:29;;;;;;;11.48;3.40;;;;;;;20.27;61.39;102538.75;5056050;28;20476;-43
2022/07/10 09:54:56;;;;;;;8.82;3.58;;;;;;;20.28;59.28;102537.84;5055038;28;20028;-43
2022/07/10 09:57:27;;;;;;;14.07;4.50;;;;;;;20.07;58.80;102539.25;5055424;28;20609;-42
2022/07/10 09:59:54;;;;;;;9.52;3.40;;;;;;;19.73;60.82;102536.03;5056007;28;20040;-45
2022/07/10 10:02:20;;;;;;;12.20;3.80;;;;;;;19.48;61.09;102533.78;5054963;28;20052;-42
2022/07/10 10:04:48;;;;;;;12.85;4.47;;;;;;;19.22;60.79;102539.38;5055733;28;20466;-44
2022/07/10 10:07:18;;;;;;;7.93;3.65;;;;;;;19.60;61.65;102541.00;5054819;28;20543;-41
2022/07/10 10:09:53;;;;;;;14.90;4.10;;;;;;;20.26;61.90;102536.97;5055764;28;20024;-42
2022/07/10 10:12:31;;;;;;;12.98;4.88;;;;;;;20.55;58.54;102533.91;5055721;28;20060;-46
2022/07/10 10:14:57;;;;;;;15.70;5.47;;;;;;;20.55;57.13;102539.16;5054907;28;20033;-44
2022/07/10 10:17:25;;;;;;;16.00;4.80;;;;;;;20.65;58.77;102541.06;5055453;28;20025;-46
2022/07/10 10:22:43;;;;;;;11.07;4.50;;;;;;;21.12;56.72;102531.22;5055026;28;20075;-44
2022/07/10 10:25:09;;;;;;;10.93;4.70;;;;;;;21.13;56.71;102523.38;5055466;28;20025;-44
2022/07/10 10:27:35;;;;;;;12.52;4.00;;;;;;;20.94;56.83;102526.63;5055451;28;20100;-45
2022/07/10 10:30:02;;;;;;;12.35;3.67;;;;;;;20.82;56.77;102522.13;5054571;28;20107;-42
2022/07/10 10:32:27;;;;;;;14.00;3.90;;;;;;;20.69;58.50;102527.13;5055195;28;20032;-42
2022/07/10 10:34:56;;;;;;;10.75;3.40;;;;;;;20.68;57.04;102528.03;5055298;28;20029;-47
2022/07/10 10:37:27;;;;;;;13.75;3.65;;;;;;;20.86;57.29;102524.81;5054310;28;20915;-46
2022/07/10 10:39:55;;;;;;;9.60;3.10;;;;;;;21.07;55.00;102525.06;5055134;28;20033;-46
2022/07/10 10:42:34;;;;;;;9.55;3.20;;;;;;;21.65;56.00;102520.53;5054232;28;20025;-42
2022/07/10 10:45:32;;;;;;;10.25;3.13;;;;;;;22.06;55.77;102520.88;5054864;28;20036;-45
2022/07/10 10:48:05;;;;;;;8.32;3.13;;;;;;;22.31;51.15;102520.22;5054970;28;20082;-42
2022/07/10 10:50:51;;;;;;;9.85;3.50;;;;;;;22.00;52.51;102525.22;5053773;28;20074;-42
2022/07/10 10:53:20;;;;;;;8.77;3.20;;;;;;;21.80;53.02;102521.53;5054682;28;20047;-43
2022/07/10 10:56:04;;;;;;;9.50;3.47;;;;;;;21.86;54.65;102524.22;5054929;28;20021;-46
2022/07/10 10:58:37;;;;;;;12.07;3.38;;;;;;;22.03;55.11;102527.84;5053998;28;20063;-46
2022/07/10 11:01:24;;;;;;;10.98;3.38;;;;;;;21.97;53.90;102513.81;5054800;28;20025;-45
2022/07/10 11:04:04;;;;;;;8.80;3.30;;;;;;;22.15;52.29;102523.59;5053973;28;20036;-43
2022/07/10 11:06:49;;;;;;;9.63;2.83;;;;;;;22.29;53.90;102511.44;5054520;28;20431;-44
2022/07/10 11:09:28;;;;;;;7.68;2.85;;;;;;;22.13;52.44;102505.19;5054405;28;20028;-44
2022/07/10 11:12:06;;;;;;;10.55;3.05;;;;;;;22.15;53.98;102505.19;5053719;28;20071;-46
2022/07/10 11:14:37;;;;;;;9.10;2.60;;;;;;;22.00;53.86;102514.72;5054437;28;20388;-43
2022/07/10 11:17:03;;;;;;;11.20;3.03;;;;;;;21.90;53.40;102507.63;5054207;28;20464;-44
2022/07/10 11:19:30;;;;;;;8.02;2.72;;;;;;;22.14;54.61;102500.81;5053743;28;20029;-42
2022/07/10 11:22:10;;;;;;;8.25;3.13;;;;;;;22.29;54.27;102495.66;5054168;28;20479;-42
2022/07/10 11:25:14;;;;;;;10.77;2.90;;;;;;;22.46;54.01;102503.69;5053391;28;20531;-44
2022/07/10 11:28:08;;;;;;;9.40;2.67;;;;;;;22.72;54.40;102502.09;5054309;28;20100;-42
2022/07/10 11:30:48;;;;;;;9.43;3.03;;;;;;;22.63;52.53;102506.44;5054108;28;20025;-46
2022/07/10 11:33:14;;;;;;;8.27;2.95;;;;;;;22.45;51.55;102512.47;5053400;28;20100;-43